sensor_id;sensor_type;location;lat;lon;timestamp;P1;durP1;ratioP1;P2;durP2;ratioP2
11287;SDS011;5700;50.996;7.044;2024-01-15T00:02:49;32.30;;;12.57;;
11287;SDS011;5700;50.996;7.044;2024-01-15T00:05:50;32.63;;;11.77;;
11287;SDS011;5700;50.996;7.044;2024-01-15T00:08:52;28.42;;;12.43;;
11287;SDS011;5700;50.996;7.044;2024-01-15T00:11:54;31.42;;;12.57;;
11287;SDS011;5700;50.996;7.044;2024-01-15T00:14:57;29.98;;;12.88;;
11287;SDS011;5700;50.996;7.044;2024-01-15T00:17:59;30.95;;;12.20;;
11287;SDS011;5700;50.996;7.044;2024-01-15T00:21:00;29.10;;;12.50;;
11287;SDS011;5700;50.996;7.044;2024-01-15T00:24:01;29.25;;;12.85;;
11287;SDS011;5700;50.996;7.044;2024-01-15T00:27:03;34.22;;;12.52;;
11287;SDS011;5700;50.996;7.044;2024-01-15T00:30:06;28.80;;;12.25;;
11287;SDS011;5700;50.996;7.044;2024-01-15T00:33:08;30.90;;;11.38;;
11287;SDS011;5700;50.996;7.044;2024-01-15T00:36:12;27.83;;;11.88;;
11287;SDS011;5700;50.996;7.044;2024-01-15T00:39:14;30.17;;;11.50;;
11287;SDS011;5700;50.996;7.044;2024-01-15T00:42:16;32.97;;;12.82;;
11287;SDS011;5700;50.996;7.044;2024-01-15T00:45:19;30.45;;;12.05;;
11287;SDS011;5700;50.996;7.044;2024-01-15T00:48:21;30.95;;;12.20;;
11287;SDS011;5700;50.996;7.044;2024-01-15T00:51:23;30.70;;;12.70;;
11287;SDS011;5700;50.996;7.044;2024-01-15T00:54:24;28.40;;;12.07;;
11287;SDS011;5700;50.996;7.044;2024-01-15T00:57:26;28.45;;;12.60;;
11287;SDS011;5700;50.996;7.044;2024-01-15T01:00:29;30.65;;;12.07;;
11287;SDS011;5700;50.996;7.044;2024-01-15T01:03:31;30.25;;;11.40;;
11287;SDS011;5700;50.996;7.044;2024-01-15T01:06:32;31.98;;;13.85;;
11287;SDS011;5700;50.996;7.044;2024-01-15T01:09:34;30.95;;;12.88;;
11287;SDS011;5700;50.996;7.044;2024-01-15T01:12:35;31.88;;;11.77;;
11287;SDS011;5700;50.996;7.044;2024-01-15T01:15:38;28.10;;;12.05;;
11287;SDS011;5700;50.996;7.044;2024-01-15T01:18:39;29.40;;;13.18;;
11287;SDS011;5700;50.996;7.044;2024-01-15T01:21:41;35.00;;;12.65;;
11287;SDS011;5700;50.996;7.044;2024-01-15T01:24:43;30.55;;;13.52;;
11287;SDS011;5700;50.996;7.044;2024-01-15T01:27:44;28.73;;;12.52;;
11287;SDS011;5700;50.996;7.044;2024-01-15T01:30:47;35.95;;;13.00;;
11287;SDS011;5700;50.996;7.044;2024-01-15T01:33:48;32.67;;;12.75;;
11287;SDS011;5700;50.996;7.044;2024-01-15T01:36:50;36.63;;;13.27;;
11287;SDS011;5700;50.996;7.044;2024-01-15T01:39:51;30.15;;;12.65;;
11287;SDS011;5700;50.996;7.044;2024-01-15T01:42:53;29.42;;;12.25;;
11287;SDS011;5700;50.996;7.044;2024-01-15T01:45:57;31.83;;;11.95;;
11287;SDS011;5700;50.996;7.044;2024-01-15T01:48:59;34.35;;;12.05;;
11287;SDS011;5700;50.996;7.044;2024-01-15T01:52:05;30.42;;;12.50;;
11287;SDS011;5700;50.996;7.044;2024-01-15T01:55:07;29.15;;;11.68;;
11287;SDS011;5700;50.996;7.044;2024-01-15T01:58:10;27.98;;;11.77;;
11287;SDS011;5700;50.996;7.044;2024-01-15T02:01:13;26.17;;;12.45;;
11287;SDS011;5700;50.996;7.044;2024-01-15T02:04:16;32.20;;;13.50;;
11287;SDS011;5700;50.996;7.044;2024-01-15T02:07:18;29.25;;;13.27;;
11287;SDS011;5700;50.996;7.044;2024-01-15T02:10:19;37.97;;;12.88;;
11287;SDS011;5700;50.996;7.044;2024-01-15T02:13:21;30.52;;;12.82;;
11287;SDS011;5700;50.996;7.044;2024-01-15T02:16:24;28.33;;;12.48;;
11287;SDS011;5700;50.996;7.044;2024-01-15T02:19:25;34.47;;;13.10;;
11287;SDS011;5700;50.996;7.044;2024-01-15T02:22:27;34.05;;;13.18;;
11287;SDS011;5700;50.996;7.044;2024-01-15T02:25:30;30.85;;;11.15;;
11287;SDS011;5700;50.996;7.044;2024-01-15T02:28:32;30.10;;;12.05;;
11287;SDS011;5700;50.996;7.044;2024-01-15T02:31:34;32.17;;;13.02;;
11287;SDS011;5700;50.996;7.044;2024-01-15T02:34:36;32.63;;;12.80;;
11287;SDS011;5700;50.996;7.044;2024-01-15T02:37:38;32.10;;;12.55;;
11287;SDS011;5700;50.996;7.044;2024-01-15T02:40:40;34.72;;;13.63;;
11287;SDS011;5700;50.996;7.044;2024-01-15T02:43:42;33.22;;;12.98;;
11287;SDS011;5700;50.996;7.044;2024-01-15T02:46:44;29.15;;;12.63;;
11287;SDS011;5700;50.996;7.044;2024-01-15T02:49:45;35.45;;;12.25;;
11287;SDS011;5700;50.996;7.044;2024-01-15T02:52:47;35.45;;;14.48;;
11287;SDS011;5700;50.996;7.044;2024-01-15T02:55:50;29.98;;;11.85;;
11287;SDS011;5700;50.996;7.044;2024-01-15T02:58:51;31.65;;;12.82;;
11287;SDS011;5700;50.996;7.044;2024-01-15T03:01:53;32.95;;;13.07;;
11287;SDS011;5700;50.996;7.044;2024-01-15T03:04:54;30.52;;;12.77;;
11287;SDS011;5700;50.996;7.044;2024-01-15T03:07:56;32.67;;;13.57;;
11287;SDS011;5700;50.996;7.044;2024-01-15T03:10:59;34.13;;;12.77;;
11287;SDS011;5700;50.996;7.044;2024-01-15T03:14:00;30.92;;;12.85;;
11287;SDS011;5700;50.996;7.044;2024-01-15T03:17:02;29.17;;;13.60;;
11287;SDS011;5700;50.996;7.044;2024-01-15T03:20:04;37.42;;;12.82;;
11287;SDS011;5700;50.996;7.044;2024-01-15T03:23:06;28.75;;;11.60;;
11287;SDS011;5700;50.996;7.044;2024-01-15T03:26:09;32.70;;;13.35;;
11287;SDS011;5700;50.996;7.044;2024-01-15T03:29:11;27.50;;;11.57;;
11287;SDS011;5700;50.996;7.044;2024-01-15T03:32:12;29.52;;;13.18;;
11287;SDS011;5700;50.996;7.044;2024-01-15T03:35:16;31.42;;;13.57;;
11287;SDS011;5700;50.996;7.044;2024-01-15T03:38:17;29.00;;;12.38;;
11287;SDS011;5700;50.996;7.044;2024-01-15T03:41:20;30.67;;;13.00;;
11287;SDS011;5700;50.996;7.044;2024-01-15T03:44:22;29.13;;;12.32;;
11287;SDS011;5700;50.996;7.044;2024-01-15T03:47:23;39.38;;;13.68;;
11287;SDS011;5700;50.996;7.044;2024-01-15T03:50:25;28.80;;;12.35;;
11287;SDS011;5700;50.996;7.044;2024-01-15T03:53:26;34.28;;;12.27;;
11287;SDS011;5700;50.996;7.044;2024-01-15T03:56:29;30.10;;;12.50;;
11287;SDS011;5700;50.996;7.044;2024-01-15T03:59:31;27.55;;;12.50;;
11287;SDS011;5700;50.996;7.044;2024-01-15T04:02:32;27.83;;;11.75;;
11287;SDS011;5700;50.996;7.044;2024-01-15T04:05:34;32.40;;;12.68;;
11287;SDS011;5700;50.996;7.044;2024-01-15T04:08:36;31.15;;;13.23;;
11287;SDS011;5700;50.996;7.044;2024-01-15T04:11:39;31.05;;;13.43;;
11287;SDS011;5700;50.996;7.044;2024-01-15T04:14:41;34.33;;;12.90;;
11287;SDS011;5700;50.996;7.044;2024-01-15T04:17:43;28.98;;;12.50;;
11287;SDS011;5700;50.996;7.044;2024-01-15T04:20:45;30.48;;;12.85;;
11287;SDS011;5700;50.996;7.044;2024-01-15T04:23:46;26.15;;;12.27;;
11287;SDS011;5700;50.996;7.044;2024-01-15T04:26:49;31.80;;;13.57;;
11287;SDS011;5700;50.996;7.044;2024-01-15T04:29:51;30.42;;;12.45;;
11287;SDS011;5700;50.996;7.044;2024-01-15T04:32:53;25.70;;;11.50;;
11287;SDS011;5700;50.996;7.044;2024-01-15T04:35:54;29.27;;;12.75;;
11287;SDS011;5700;50.996;7.044;2024-01-15T04:38:55;24.98;;;11.63;;
11287;SDS011;5700;50.996;7.044;2024-01-15T04:41:58;26.92;;;12.38;;
11287;SDS011;5700;50.996;7.044;2024-01-15T04:44:59;28.50;;;11.32;;
11287;SDS011;5700;50.996;7.044;2024-01-15T04:48:01;27.20;;;12.10;;
11287;SDS011;5700;50.996;7.044;2024-01-15T04:51:04;26.38;;;12.30;;
11287;SDS011;5700;50.996;7.044;2024-01-15T04:54:06;30.30;;;12.65;;
11287;SDS011;5700;50.996;7.044;2024-01-15T04:57:09;29.15;;;13.32;;
11287;SDS011;5700;50.996;7.044;2024-01-15T05:00:11;33.10;;;12.02;;
11287;SDS011;5700;50.996;7.044;2024-01-15T05:03:13;27.70;;;12.30;;
11287;SDS011;5700;50.996;7.044;2024-01-15T05:06:15;28.02;;;11.70;;
11287;SDS011;5700;50.996;7.044;2024-01-15T05:09:17;29.50;;;12.10;;
11287;SDS011;5700;50.996;7.044;2024-01-15T05:12:20;30.40;;;12.60;;
11287;SDS011;5700;50.996;7.044;2024-01-15T05:15:22;24.83;;;11.25;;
11287;SDS011;5700;50.996;7.044;2024-01-15T05:18:23;26.17;;;11.52;;
11287;SDS011;5700;50.996;7.044;2024-01-15T05:21:25;25.08;;;10.52;;
11287;SDS011;5700;50.996;7.044;2024-01-15T05:24:26;29.48;;;12.13;;
11287;SDS011;5700;50.996;7.044;2024-01-15T05:27:29;24.40;;;10.43;;
11287;SDS011;5700;50.996;7.044;2024-01-15T05:30:31;27.05;;;10.90;;
11287;SDS011;5700;50.996;7.044;2024-01-15T05:33:33;24.38;;;10.43;;
11287;SDS011;5700;50.996;7.044;2024-01-15T05:36:34;21.98;;;10.13;;
11287;SDS011;5700;50.996;7.044;2024-01-15T05:39:36;22.35;;;10.05;;
11287;SDS011;5700;50.996;7.044;2024-01-15T05:42:39;22.45;;;9.85;;
11287;SDS011;5700;50.996;7.044;2024-01-15T05:45:42;23.25;;;9.48;;
11287;SDS011;5700;50.996;7.044;2024-01-15T05:48:44;26.75;;;10.23;;
11287;SDS011;5700;50.996;7.044;2024-01-15T05:51:45;19.33;;;8.70;;
11287;SDS011;5700;50.996;7.044;2024-01-15T05:54:46;20.13;;;8.25;;
11287;SDS011;5700;50.996;7.044;2024-01-15T05:57:49;22.50;;;8.82;;
11287;SDS011;5700;50.996;7.044;2024-01-15T06:00:51;20.13;;;8.07;;
11287;SDS011;5700;50.996;7.044;2024-01-15T06:03:52;20.20;;;8.23;;
11287;SDS011;5700;50.996;7.044;2024-01-15T06:06:54;19.98;;;7.45;;
11287;SDS011;5700;50.996;7.044;2024-01-15T06:09:55;16.15;;;6.90;;
11287;SDS011;5700;50.996;7.044;2024-01-15T06:12:58;17.95;;;7.32;;
11287;SDS011;5700;50.996;7.044;2024-01-15T06:16:01;15.07;;;7.22;;
11287;SDS011;5700;50.996;7.044;2024-01-15T06:19:03;19.52;;;6.72;;
11287;SDS011;5700;50.996;7.044;2024-01-15T06:22:04;17.70;;;7.22;;
11287;SDS011;5700;50.996;7.044;2024-01-15T06:25:06;12.32;;;6.53;;
11287;SDS011;5700;50.996;7.044;2024-01-15T06:28:10;14.55;;;6.78;;
11287;SDS011;5700;50.996;7.044;2024-01-15T06:31:11;15.60;;;7.00;;
11287;SDS011;5700;50.996;7.044;2024-01-15T06:34:14;20.98;;;8.82;;
11287;SDS011;5700;50.996;7.044;2024-01-15T06:37:16;19.25;;;8.73;;
11287;SDS011;5700;50.996;7.044;2024-01-15T06:40:19;15.88;;;8.27;;
11287;SDS011;5700;50.996;7.044;2024-01-15T06:43:22;20.45;;;9.38;;
11287;SDS011;5700;50.996;7.044;2024-01-15T06:46:23;16.40;;;8.50;;
11287;SDS011;5700;50.996;7.044;2024-01-15T06:49:25;18.88;;;8.50;;
11287;SDS011;5700;50.996;7.044;2024-01-15T06:52:26;19.33;;;8.93;;
11287;SDS011;5700;50.996;7.044;2024-01-15T06:55:28;17.23;;;8.63;;
11287;SDS011;5700;50.996;7.044;2024-01-15T06:58:31;19.02;;;8.23;;
11287;SDS011;5700;50.996;7.044;2024-01-15T07:01:33;20.38;;;8.82;;
11287;SDS011;5700;50.996;7.044;2024-01-15T07:04:35;16.30;;;8.18;;
11287;SDS011;5700;50.996;7.044;2024-01-15T07:07:36;19.35;;;8.73;;
11287;SDS011;5700;50.996;7.044;2024-01-15T07:10:38;18.83;;;8.90;;
11287;SDS011;5700;50.996;7.044;2024-01-15T07:13:41;18.02;;;8.23;;
11287;SDS011;5700;50.996;7.044;2024-01-15T07:16:43;20.05;;;9.57;;
11287;SDS011;5700;50.996;7.044;2024-01-15T07:19:45;20.75;;;9.73;;
11287;SDS011;5700;50.996;7.044;2024-01-15T07:22:47;21.50;;;10.25;;
11287;SDS011;5700;50.996;7.044;2024-01-15T07:25:49;20.17;;;9.68;;
11287;SDS011;5700;50.996;7.044;2024-01-15T07:28:51;25.08;;;10.23;;
11287;SDS011;5700;50.996;7.044;2024-01-15T07:31:53;19.48;;;9.55;;
11287;SDS011;5700;50.996;7.044;2024-01-15T07:34:54;24.42;;;9.85;;
11287;SDS011;5700;50.996;7.044;2024-01-15T07:37:56;23.50;;;9.98;;
11287;SDS011;5700;50.996;7.044;2024-01-15T07:40:58;19.85;;;10.25;;
11287;SDS011;5700;50.996;7.044;2024-01-15T07:44:01;21.17;;;11.50;;
11287;SDS011;5700;50.996;7.044;2024-01-15T07:47:03;23.33;;;10.25;;
11287;SDS011;5700;50.996;7.044;2024-01-15T07:50:04;22.17;;;9.45;;
11287;SDS011;5700;50.996;7.044;2024-01-15T07:53:06;23.80;;;11.88;;
11287;SDS011;5700;50.996;7.044;2024-01-15T07:56:08;21.02;;;10.90;;
11287;SDS011;5700;50.996;7.044;2024-01-15T07:59:11;16.58;;;9.43;;
11287;SDS011;5700;50.996;7.044;2024-01-15T08:02:13;22.13;;;10.18;;
11287;SDS011;5700;50.996;7.044;2024-01-15T08:05:15;20.58;;;10.15;;
11287;SDS011;5700;50.996;7.044;2024-01-15T08:08:17;25.50;;;9.77;;
11287;SDS011;5700;50.996;7.044;2024-01-15T08:11:18;22.08;;;9.90;;
11287;SDS011;5700;50.996;7.044;2024-01-15T08:14:22;27.13;;;10.70;;
11287;SDS011;5700;50.996;7.044;2024-01-15T08:17:23;20.58;;;10.82;;
11287;SDS011;5700;50.996;7.044;2024-01-15T08:20:28;22.05;;;10.63;;
11287;SDS011;5700;50.996;7.044;2024-01-15T08:23:30;22.98;;;11.15;;
11287;SDS011;5700;50.996;7.044;2024-01-15T08:26:32;29.58;;;12.60;;
11287;SDS011;5700;50.996;7.044;2024-01-15T08:29:35;25.15;;;11.15;;
11287;SDS011;5700;50.996;7.044;2024-01-15T08:32:36;23.90;;;12.52;;
11287;SDS011;5700;50.996;7.044;2024-01-15T08:35:42;33.38;;;13.02;;
11287;SDS011;5700;50.996;7.044;2024-01-15T08:38:43;26.98;;;11.57;;
11287;SDS011;5700;50.996;7.044;2024-01-15T08:41:45;27.73;;;12.48;;
11287;SDS011;5700;50.996;7.044;2024-01-15T08:44:49;28.05;;;11.90;;
11287;SDS011;5700;50.996;7.044;2024-01-15T08:47:51;24.70;;;11.05;;
11287;SDS011;5700;50.996;7.044;2024-01-15T08:50:52;26.52;;;11.40;;
11287;SDS011;5700;50.996;7.044;2024-01-15T08:53:54;27.75;;;11.48;;
11287;SDS011;5700;50.996;7.044;2024-01-15T08:56:57;25.80;;;11.00;;
11287;SDS011;5700;50.996;7.044;2024-01-15T09:00:01;25.42;;;10.82;;
11287;SDS011;5700;50.996;7.044;2024-01-15T09:03:04;20.95;;;10.40;;
11287;SDS011;5700;50.996;7.044;2024-01-15T09:06:06;19.88;;;9.80;;
11287;SDS011;5700;50.996;7.044;2024-01-15T09:09:07;23.58;;;10.52;;
11287;SDS011;5700;50.996;7.044;2024-01-15T09:12:09;21.55;;;10.07;;
11287;SDS011;5700;50.996;7.044;2024-01-15T09:15:12;24.50;;;10.20;;
11287;SDS011;5700;50.996;7.044;2024-01-15T09:18:14;22.80;;;10.27;;
11287;SDS011;5700;50.996;7.044;2024-01-15T09:21:15;20.02;;;10.32;;
11287;SDS011;5700;50.996;7.044;2024-01-15T09:24:17;22.30;;;10.18;;
11287;SDS011;5700;50.996;7.044;2024-01-15T09:27:19;27.25;;;10.95;;
11287;SDS011;5700;50.996;7.044;2024-01-15T09:30:22;19.98;;;10.15;;
11287;SDS011;5700;50.996;7.044;2024-01-15T09:33:23;25.30;;;11.25;;
11287;SDS011;5700;50.996;7.044;2024-01-15T09:36:25;18.25;;;9.65;;
11287;SDS011;5700;50.996;7.044;2024-01-15T09:39:27;18.30;;;9.35;;
11287;SDS011;5700;50.996;7.044;2024-01-15T09:42:29;17.42;;;7.97;;
11287;SDS011;5700;50.996;7.044;2024-01-15T09:45:32;18.98;;;8.68;;
11287;SDS011;5700;50.996;7.044;2024-01-15T09:48:33;13.20;;;7.20;;
11287;SDS011;5700;50.996;7.044;2024-01-15T09:51:35;17.50;;;7.90;;
11287;SDS011;5700;50.996;7.044;2024-01-15T09:54:37;14.60;;;7.55;;
11287;SDS011;5700;50.996;7.044;2024-01-15T09:57:40;14.88;;;7.05;;
11287;SDS011;5700;50.996;7.044;2024-01-15T10:00:43;13.75;;;6.32;;
11287;SDS011;5700;50.996;7.044;2024-01-15T10:03:45;12.80;;;6.32;;
11287;SDS011;5700;50.996;7.044;2024-01-15T10:06:47;12.63;;;6.00;;
11287;SDS011;5700;50.996;7.044;2024-01-15T10:09:51;14.20;;;5.97;;
11287;SDS011;5700;50.996;7.044;2024-01-15T10:12:53;13.30;;;6.40;;
11287;SDS011;5700;50.996;7.044;2024-01-15T10:15:57;9.00;;;4.97;;
11287;SDS011;5700;50.996;7.044;2024-01-15T10:18:59;12.80;;;4.97;;
11287;SDS011;5700;50.996;7.044;2024-01-15T10:22:01;10.32;;;4.65;;
11287;SDS011;5700;50.996;7.044;2024-01-15T10:25:03;8.95;;;4.50;;
11287;SDS011;5700;50.996;7.044;2024-01-15T10:28:05;11.10;;;5.53;;
11287;SDS011;5700;50.996;7.044;2024-01-15T10:31:08;8.30;;;4.68;;
11287;SDS011;5700;50.996;7.044;2024-01-15T10:34:12;9.75;;;4.57;;
11287;SDS011;5700;50.996;7.044;2024-01-15T10:37:15;10.40;;;4.82;;
11287;SDS011;5700;50.996;7.044;2024-01-15T10:40:17;8.02;;;4.47;;
11287;SDS011;5700;50.996;7.044;2024-01-15T10:43:20;9.93;;;4.90;;
11287;SDS011;5700;50.996;7.044;2024-01-15T10:46:23;10.93;;;4.90;;
11287;SDS011;5700;50.996;7.044;2024-01-15T10:49:25;8.70;;;4.95;;
11287;SDS011;5700;50.996;7.044;2024-01-15T10:52:29;8.98;;;4.50;;
11287;SDS011;5700;50.996;7.044;2024-01-15T10:55:31;7.57;;;3.85;;
11287;SDS011;5700;50.996;7.044;2024-01-15T10:58:33;8.55;;;4.60;;
11287;SDS011;5700;50.996;7.044;2024-01-15T11:01:37;8.23;;;4.00;;
11287;SDS011;5700;50.996;7.044;2024-01-15T11:04:38;8.15;;;4.00;;
11287;SDS011;5700;50.996;7.044;2024-01-15T11:07:40;7.15;;;4.30;;
11287;SDS011;5700;50.996;7.044;2024-01-15T11:10:42;6.45;;;3.40;;
11287;SDS011;5700;50.996;7.044;2024-01-15T11:13:49;12.88;;;3.70;;
11287;SDS011;5700;50.996;7.044;2024-01-15T11:16:57;7.68;;;3.65;;
11287;SDS011;5700;50.996;7.044;2024-01-15T11:19:59;6.95;;;3.17;;
11287;SDS011;5700;50.996;7.044;2024-01-15T11:23:01;6.97;;;2.92;;
11287;SDS011;5700;50.996;7.044;2024-01-15T11:26:02;5.80;;;2.70;;
11287;SDS011;5700;50.996;7.044;2024-01-15T11:29:05;4.75;;;2.85;;
11287;SDS011;5700;50.996;7.044;2024-01-15T11:32:08;5.43;;;3.20;;
11287;SDS011;5700;50.996;7.044;2024-01-15T11:35:10;6.35;;;3.08;;
11287;SDS011;5700;50.996;7.044;2024-01-15T11:38:11;4.22;;;2.38;;
11287;SDS011;5700;50.996;7.044;2024-01-15T11:41:13;6.13;;;2.58;;
11287;SDS011;5700;50.996;7.044;2024-01-15T11:44:15;4.35;;;2.63;;
11287;SDS011;5700;50.996;7.044;2024-01-15T11:47:29;5.30;;;2.58;;
11287;SDS011;5700;50.996;7.044;2024-01-15T11:50:47;4.10;;;2.28;;
11287;SDS011;5700;50.996;7.044;2024-01-15T11:53:49;5.05;;;3.03;;
11287;SDS011;5700;50.996;7.044;2024-01-15T11:56:53;4.95;;;3.15;;
11287;SDS011;5700;50.996;7.044;2024-01-15T11:59:55;5.95;;;3.10;;
11287;SDS011;5700;50.996;7.044;2024-01-15T12:02:58;6.22;;;3.28;;
11287;SDS011;5700;50.996;7.044;2024-01-15T12:06:02;6.00;;;3.35;;
11287;SDS011;5700;50.996;7.044;2024-01-15T12:09:06;7.13;;;3.58;;
11287;SDS011;5700;50.996;7.044;2024-01-15T12:12:08;6.72;;;3.50;;
11287;SDS011;5700;50.996;7.044;2024-01-15T12:15:14;6.18;;;3.75;;
11287;SDS011;5700;50.996;7.044;2024-01-15T12:18:18;10.68;;;4.47;;
11287;SDS011;5700;50.996;7.044;2024-01-15T12:21:20;8.55;;;4.80;;
11287;SDS011;5700;50.996;7.044;2024-01-15T12:24:21;9.05;;;5.38;;
11287;SDS011;5700;50.996;7.044;2024-01-15T12:27:23;11.65;;;5.93;;
11287;SDS011;5700;50.996;7.044;2024-01-15T12:30:26;11.40;;;5.88;;
11287;SDS011;5700;50.996;7.044;2024-01-15T12:33:29;10.07;;;5.25;;
11287;SDS011;5700;50.996;7.044;2024-01-15T12:36:31;10.57;;;5.93;;
11287;SDS011;5700;50.996;7.044;2024-01-15T12:39:33;11.18;;;6.15;;
11287;SDS011;5700;50.996;7.044;2024-01-15T12:42:35;11.18;;;5.22;;
11287;SDS011;5700;50.996;7.044;2024-01-15T12:45:36;9.70;;;5.25;;
11287;SDS011;5700;50.996;7.044;2024-01-15T12:48:40;10.68;;;4.80;;
11287;SDS011;5700;50.996;7.044;2024-01-15T12:51:41;9.55;;;4.22;;
11287;SDS011;5700;50.996;7.044;2024-01-15T12:54:43;9.88;;;4.40;;
11287;SDS011;5700;50.996;7.044;2024-01-15T12:57:44;11.27;;;4.30;;
11287;SDS011;5700;50.996;7.044;2024-01-15T13:00:46;8.98;;;4.07;;
11287;SDS011;5700;50.996;7.044;2024-01-15T13:03:49;7.20;;;4.05;;
11287;SDS011;5700;50.996;7.044;2024-01-15T13:06:51;13.25;;;4.38;;
11287;SDS011;5700;50.996;7.044;2024-01-15T13:09:53;12.73;;;4.15;;
11287;SDS011;5700;50.996;7.044;2024-01-15T13:12:54;10.80;;;3.03;;
11287;SDS011;5700;50.996;7.044;2024-01-15T13:15:55;8.52;;;2.95;;
11287;SDS011;5700;50.996;7.044;2024-01-15T13:18:59;9.70;;;3.05;;
11287;SDS011;5700;50.996;7.044;2024-01-15T13:22:01;8.18;;;3.70;;
11287;SDS011;5700;50.996;7.044;2024-01-15T13:25:04;10.40;;;3.50;;
11287;SDS011;5700;50.996;7.044;2024-01-15T13:28:07;8.88;;;3.55;;
11287;SDS011;5700;50.996;7.044;2024-01-15T13:31:09;8.82;;;3.42;;
11287;SDS011;5700;50.996;7.044;2024-01-15T13:34:11;7.15;;;3.10;;
11287;SDS011;5700;50.996;7.044;2024-01-15T13:37:13;5.32;;;2.88;;
11287;SDS011;5700;50.996;7.044;2024-01-15T13:40:14;6.53;;;2.80;;
11287;SDS011;5700;50.996;7.044;2024-01-15T13:43:19;9.40;;;2.53;;
11287;SDS011;5700;50.996;7.044;2024-01-15T13:46:23;8.95;;;2.85;;
11287;SDS011;5700;50.996;7.044;2024-01-15T13:49:27;5.13;;;2.53;;
11287;SDS011;5700;50.996;7.044;2024-01-15T13:52:29;4.05;;;2.58;;
11287;SDS011;5700;50.996;7.044;2024-01-15T13:55:31;8.60;;;2.67;;
11287;SDS011;5700;50.996;7.044;2024-01-15T13:58:32;4.28;;;2.15;;
11287;SDS011;5700;50.996;7.044;2024-01-15T14:01:34;6.32;;;2.50;;
11287;SDS011;5700;50.996;7.044;2024-01-15T14:04:37;4.78;;;2.40;;
11287;SDS011;5700;50.996;7.044;2024-01-15T14:07:39;3.65;;;2.25;;
11287;SDS011;5700;50.996;7.044;2024-01-15T14:10:40;5.25;;;1.90;;
11287;SDS011;5700;50.996;7.044;2024-01-15T14:13:42;3.50;;;2.15;;
11287;SDS011;5700;50.996;7.044;2024-01-15T14:16:44;4.50;;;1.90;;
11287;SDS011;5700;50.996;7.044;2024-01-15T14:19:48;2.90;;;1.90;;
11287;SDS011;5700;50.996;7.044;2024-01-15T14:22:49;3.58;;;2.08;;
11287;SDS011;5700;50.996;7.044;2024-01-15T14:25:51;3.80;;;1.98;;
11287;SDS011;5700;50.996;7.044;2024-01-15T14:28:52;2.95;;;1.83;;
11287;SDS011;5700;50.996;7.044;2024-01-15T14:31:54;3.63;;;1.80;;
11287;SDS011;5700;50.996;7.044;2024-01-15T14:34:57;5.78;;;2.00;;
11287;SDS011;5700;50.996;7.044;2024-01-15T14:37:59;3.80;;;1.75;;
11287;SDS011;5700;50.996;7.044;2024-01-15T14:41:00;4.82;;;2.03;;
11287;SDS011;5700;50.996;7.044;2024-01-15T14:44:02;2.58;;;1.80;;
11287;SDS011;5700;50.996;7.044;2024-01-15T14:47:04;3.47;;;1.77;;
11287;SDS011;5700;50.996;7.044;2024-01-15T14:50:08;1.95;;;1.65;;
11287;SDS011;5700;50.996;7.044;2024-01-15T14:53:12;3.63;;;1.85;;
11287;SDS011;5700;50.996;7.044;2024-01-15T14:56:13;3.03;;;1.90;;
11287;SDS011;5700;50.996;7.044;2024-01-15T14:59:15;3.88;;;1.92;;
11287;SDS011;5700;50.996;7.044;2024-01-15T15:02:17;3.88;;;1.60;;
11287;SDS011;5700;50.996;7.044;2024-01-15T15:05:20;5.07;;;1.77;;
11287;SDS011;5700;50.996;7.044;2024-01-15T15:08:22;2.55;;;1.58;;
11287;SDS011;5700;50.996;7.044;2024-01-15T15:11:23;2.38;;;1.52;;
11287;SDS011;5700;50.996;7.044;2024-01-15T15:14:26;2.63;;;1.70;;
11287;SDS011;5700;50.996;7.044;2024-01-15T15:17:27;6.57;;;1.67;;
11287;SDS011;5700;50.996;7.044;2024-01-15T15:20:30;3.30;;;2.00;;
11287;SDS011;5700;50.996;7.044;2024-01-15T15:23:31;5.03;;;2.58;;
11287;SDS011;5700;50.996;7.044;2024-01-15T15:26:33;4.82;;;3.10;;
11287;SDS011;5700;50.996;7.044;2024-01-15T15:29:36;3.90;;;2.70;;
11287;SDS011;5700;50.996;7.044;2024-01-15T15:32:38;7.20;;;3.67;;
11287;SDS011;5700;50.996;7.044;2024-01-15T15:35:41;4.55;;;2.15;;
11287;SDS011;5700;50.996;7.044;2024-01-15T15:38:43;4.60;;;2.40;;
11287;SDS011;5700;50.996;7.044;2024-01-15T15:41:45;3.78;;;2.30;;
11287;SDS011;5700;50.996;7.044;2024-01-15T15:44:48;7.53;;;2.50;;
11287;SDS011;5700;50.996;7.044;2024-01-15T15:47:51;4.80;;;2.38;;
11287;SDS011;5700;50.996;7.044;2024-01-15T15:50:54;5.60;;;3.38;;
11287;SDS011;5700;50.996;7.044;2024-01-15T15:53:56;3.90;;;2.20;;
11287;SDS011;5700;50.996;7.044;2024-01-15T15:56:58;5.00;;;2.97;;
11287;SDS011;5700;50.996;7.044;2024-01-15T15:59:59;4.68;;;2.63;;
11287;SDS011;5700;50.996;7.044;2024-01-15T16:03:01;3.55;;;2.22;;
11287;SDS011;5700;50.996;7.044;2024-01-15T16:06:04;3.78;;;2.47;;
11287;SDS011;5700;50.996;7.044;2024-01-15T16:09:05;5.03;;;2.88;;
11287;SDS011;5700;50.996;7.044;2024-01-15T16:12:07;4.55;;;2.58;;
11287;SDS011;5700;50.996;7.044;2024-01-15T16:15:16;4.80;;;2.25;;
11287;SDS011;5700;50.996;7.044;2024-01-15T16:18:19;5.47;;;2.72;;
11287;SDS011;5700;50.996;7.044;2024-01-15T16:21:22;4.53;;;2.15;;
11287;SDS011;5700;50.996;7.044;2024-01-15T16:24:24;5.35;;;2.35;;
11287;SDS011;5700;50.996;7.044;2024-01-15T16:27:26;3.47;;;1.67;;
11287;SDS011;5700;50.996;7.044;2024-01-15T16:30:27;7.28;;;2.75;;
11287;SDS011;5700;50.996;7.044;2024-01-15T16:33:29;4.53;;;2.42;;
11287;SDS011;5700;50.996;7.044;2024-01-15T16:36:32;4.80;;;2.00;;
11287;SDS011;5700;50.996;7.044;2024-01-15T16:39:33;4.75;;;2.53;;
11287;SDS011;5700;50.996;7.044;2024-01-15T16:42:34;6.10;;;2.30;;
11287;SDS011;5700;50.996;7.044;2024-01-15T16:45:37;5.10;;;2.63;;
11287;SDS011;5700;50.996;7.044;2024-01-15T16:48:39;4.70;;;2.80;;
11287;SDS011;5700;50.996;7.044;2024-01-15T16:51:43;6.55;;;3.83;;
11287;SDS011;5700;50.996;7.044;2024-01-15T16:54:44;6.25;;;3.78;;
11287;SDS011;5700;50.996;7.044;2024-01-15T16:57:46;6.03;;;3.03;;
11287;SDS011;5700;50.996;7.044;2024-01-15T17:00:47;6.45;;;3.22;;
11287;SDS011;5700;50.996;7.044;2024-01-15T17:03:49;6.10;;;3.00;;
11287;SDS011;5700;50.996;7.044;2024-01-15T17:06:53;7.82;;;3.60;;
11287;SDS011;5700;50.996;7.044;2024-01-15T17:09:55;7.07;;;3.50;;
11287;SDS011;5700;50.996;7.044;2024-01-15T17:12:56;7.35;;;3.35;;
11287;SDS011;5700;50.996;7.044;2024-01-15T17:15:59;6.28;;;3.63;;
11287;SDS011;5700;50.996;7.044;2024-01-15T17:19:01;6.80;;;3.20;;
11287;SDS011;5700;50.996;7.044;2024-01-15T17:22:04;8.95;;;3.50;;
11287;SDS011;5700;50.996;7.044;2024-01-15T17:25:05;10.20;;;3.75;;
11287;SDS011;5700;50.996;7.044;2024-01-15T17:28:08;7.03;;;3.40;;
11287;SDS011;5700;50.996;7.044;2024-01-15T17:31:09;7.50;;;3.40;;
11287;SDS011;5700;50.996;7.044;2024-01-15T17:34:12;8.05;;;3.60;;
11287;SDS011;5700;50.996;7.044;2024-01-15T17:37:15;10.30;;;4.18;;
11287;SDS011;5700;50.996;7.044;2024-01-15T17:40:17;14.25;;;6.85;;
11287;SDS011;5700;50.996;7.044;2024-01-15T17:43:19;9.27;;;3.58;;
11287;SDS011;5700;50.996;7.044;2024-01-15T17:46:20;13.13;;;6.65;;
11287;SDS011;5700;50.996;7.044;2024-01-15T17:49:22;21.73;;;7.97;;
11287;SDS011;5700;50.996;7.044;2024-01-15T17:52:25;44.08;;;15.75;;
11287;SDS011;5700;50.996;7.044;2024-01-15T17:55:27;70.82;;;25.52;;
11287;SDS011;5700;50.996;7.044;2024-01-15T17:58:28;14.40;;;6.07;;
11287;SDS011;5700;50.996;7.044;2024-01-15T18:01:30;7.32;;;3.58;;
11287;SDS011;5700;50.996;7.044;2024-01-15T18:04:32;6.95;;;2.90;;
11287;SDS011;5700;50.996;7.044;2024-01-15T18:07:35;7.32;;;3.53;;
11287;SDS011;5700;50.996;7.044;2024-01-15T18:10:36;10.50;;;4.38;;
11287;SDS011;5700;50.996;7.044;2024-01-15T18:13:38;12.93;;;4.25;;
11287;SDS011;5700;50.996;7.044;2024-01-15T18:16:39;6.35;;;3.15;;
11287;SDS011;5700;50.996;7.044;2024-01-15T18:19:41;10.23;;;4.55;;